Cudahy, California
Current Conditions -  °F | °C
As of 7:47 AM on Wednesday 26 Nov 2014 (Local Time) from KCQT Reporting Station
Clear Clear  
Wind Chill: 61°   Ceiling: Unl
Heat Index: 61°   Visibility: 10mi
Dew Point: 25°   Wind: 0mph
Humidity: 25%   Direction: NA
Pressure: 30.22"   Gusts: NA
Location:  33.9704°N, 118.185°W
Report Text: KCQT 261547Z AUTO 00000KT 10SM CLR 16/M04 A3022 RMK AO2 SLP233 T01611039
Loading
Personal Weather Stations






























Interactive Weather Map New forecast layout! Learn more

10-Day Weather Forecast

Advertisements
Track Severe Weather on mobile